Time;durP1;ratioP1;P1;durP2;ratioP2;P2;SDS_P1;SDS_P2;PMS_P1;PMS_P2;Temp;Humidity;BMP_temperature;BMP_pressure;BME280_temperature;BME280_humidity;BME280_pressure;Samples;Min_cycle;Max_cycle;Signal;HPM_P1;HPM_P2
2021/06/05 00:02:15;;;;;;;5.85;3.60;;;;;;;;;;4861555;29;20025;-13
2021/06/05 00:04:41;;;;;;;3.45;3.08;;;;;;;;;;4861376;29;20045;-13
2021/06/05 00:07:06;;;;;;;5.05;3.83;;;;;;;;;;4861408;29;20036;-13
2021/06/05 00:09:31;;;;;;;3.85;3.45;;;;;;;;;;4861381;29;20053;-13
2021/06/05 00:11:57;;;;;;;6.57;3.30;;;;;;;;;;4861573;29;20044;-13
2021/06/05 00:14:22;;;;;;;4.72;3.35;;;;;;;;;;4861265;29;20468;-14
2021/06/05 00:16:48;;;;;;;4.22;3.35;;;;;;;;;;4860187;29;20054;-13
2021/06/05 00:19:16;;;;;;;4.35;3.55;;;;;;;;;;4861712;29;20057;-13
2021/06/05 00:21:42;;;;;;;5.50;3.80;;;;;;;;;;4861055;29;20042;-13
2021/06/05 00:24:08;;;;;;;4.95;3.38;;;;;;;;;;4860999;29;20021;-13
2021/06/05 00:26:34;;;;;;;4.10;3.70;;;;;;;;;;4861193;29;20116;-13
2021/06/05 00:29:00;;;;;;;4.38;3.95;;;;;;;;;;4860554;29;20121;-13
2021/06/05 00:31:26;;;;;;;4.00;3.63;;;;;;;;;;4861280;29;20036;-13
2021/06/05 00:33:51;;;;;;;4.20;3.80;;;;;;;;;;4860919;29;20022;-13
2021/06/05 00:36:16;;;;;;;3.70;3.40;;;;;;;;;;4860942;29;20541;-13
2021/06/05 00:38:42;;;;;;;8.63;3.13;;;;;;;;;;4860791;29;20060;-13
2021/06/05 00:41:10;;;;;;;8.70;3.92;;;;;;;;;;4859501;29;20408;-13
2021/06/05 00:43:41;;;;;;;5.15;3.35;;;;;;;;;;4859814;29;20026;-13
2021/06/05 00:46:07;;;;;;;6.38;4.03;;;;;;;;;;4861055;29;20069;-13
2021/06/05 00:48:32;;;;;;;3.83;3.42;;;;;;;;;;4860783;29;20105;-13
2021/06/05 00:50:58;;;;;;;4.47;3.47;;;;;;;;;;4860861;29;20029;-13
2021/06/05 00:53:28;;;;;;;7.43;3.50;;;;;;;;;;4859219;29;20025;-13
2021/06/05 00:55:55;;;;;;;5.40;3.10;;;;;;;;;;4860619;29;20033;-13
2021/06/05 00:58:23;;;;;;;7.22;3.50;;;;;;;;;;4844058;29;20508;-13
2021/06/05 01:00:54;;;;;;;6.78;3.15;;;;;;;;;;4859118;29;20049;-13
2021/06/05 01:03:20;;;;;;;4.40;3.63;;;;;;;;;;4860515;29;20481;-13
2021/06/05 01:05:48;;;;;;;4.15;3.75;;;;;;;;;;4860347;29;20196;-13
2021/06/05 01:08:23;;;;;;;6.53;4.20;;;;;;;;;;4860788;29;20029;-13
2021/06/05 01:10:55;;;;;;;5.72;4.18;;;;;;;;;;4859004;29;20068;-13
2021/06/05 01:13:40;;;;;;;6.38;3.53;;;;;;;;;;4860682;29;20044;-13
2021/06/05 01:16:07;;;;;;;6.65;4.82;;;;;;;;;;4860723;29;20068;-13
2021/06/05 01:18:37;;;;;;;7.35;3.72;;;;;;;;;;4858983;29;20096;-13
2021/06/05 01:21:24;;;;;;;4.50;3.88;;;;;;;;;;4860409;29;20080;-13
2021/06/05 01:24:10;;;;;;;4.45;3.78;;;;;;;;;;4860357;29;20040;-13
2021/06/05 01:26:37;;;;;;;5.93;3.63;;;;;;;;;;4858998;29;20046;-13
2021/06/05 01:29:13;;;;;;;4.40;3.75;;;;;;;;;;4860092;29;20029;-13
2021/06/05 01:31:40;;;;;;;6.38;3.95;;;;;;;;;;4860132;29;20115;-13
2021/06/05 01:34:07;;;;;;;4.85;3.67;;;;;;;;;;4860367;29;20026;-12
2021/06/05 01:36:35;;;;;;;6.90;4.07;;;;;;;;;;4858931;29;20029;-13
2021/06/05 01:39:04;;;;;;;5.68;4.28;;;;;;;;;;4859907;29;20545;-13
2021/06/05 01:41:31;;;;;;;5.20;4.20;;;;;;;;;;4860301;29;20090;-13
2021/06/05 01:43:59;;;;;;;4.80;4.03;;;;;;;;;;4862627;29;20025;-12
2021/06/05 01:46:27;;;;;;;3.90;3.42;;;;;;;;;;4864125;29;20086;-12
2021/06/05 01:48:53;;;;;;;8.35;3.88;;;;;;;;;;4864061;29;20026;-12
2021/06/05 01:51:22;;;;;;;5.20;3.97;;;;;;;;;;4862527;29;20037;-13
2021/06/05 01:53:53;;;;;;;4.20;3.55;;;;;;;;;;4862332;29;20389;-13
2021/06/05 01:56:26;;;;;;;4.22;3.83;;;;;;;;;;4863960;29;20060;-13
2021/06/05 01:58:54;;;;;;;4.88;3.92;;;;;;;;;;4862330;29;20447;-13
2021/06/05 02:01:28;;;;;;;6.63;4.10;;;;;;;;;;4862239;29;20088;-15
2021/06/05 02:03:55;;;;;;;8.32;3.83;;;;;;;;;;4862276;29;20033;-13
2021/06/05 02:06:27;;;;;;;5.25;3.58;;;;;;;;;;4862291;29;20025;-13
2021/06/05 02:08:58;;;;;;;4.15;3.75;;;;;;;;;;4863418;29;20029;-12
2021/06/05 02:11:28;;;;;;;4.03;3.25;;;;;;;;;;4863504;29;20033;-12
2021/06/05 02:14:04;;;;;;;5.60;3.47;;;;;;;;;;4862080;29;20033;-13
2021/06/05 02:16:34;;;;;;;3.90;3.05;;;;;;;;;;4862094;29;20033;-13
2021/06/05 02:19:01;;;;;;;5.68;2.85;;;;;;;;;;4861963;29;20128;-12
2021/06/05 02:21:40;;;;;;;3.97;3.00;;;;;;;;;;4862113;29;20191;-13
2021/06/05 02:24:08;;;;;;;2.90;2.70;;;;;;;;;;4861859;29;20385;-13
2021/06/05 02:26:35;;;;;;;6.80;3.55;;;;;;;;;;4861991;29;20512;-13
2021/06/05 02:29:04;;;;;;;3.40;2.92;;;;;;;;;;4863271;29;20030;-13
2021/06/05 02:31:30;;;;;;;4.30;2.90;;;;;;;;;;4863178;29;20025;-13
2021/06/05 02:33:57;;;;;;;6.57;3.40;;;;;;;;;;4861822;29;20025;-13
2021/06/05 02:36:24;;;;;;;5.03;3.08;;;;;;;;;;4861768;29;20476;-12
2021/06/05 02:38:53;;;;;;;6.18;3.28;;;;;;;;;;4861628;29;20098;-13
2021/06/05 02:41:23;;;;;;;7.70;3.60;;;;;;;;;;4861537;29;20040;-13
2021/06/05 02:43:50;;;;;;;3.83;3.30;;;;;;;;;;4861537;29;20033;-13
2021/06/05 02:46:18;;;;;;;4.00;3.00;;;;;;;;;;4862849;29;20025;-13
2021/06/05 02:49:04;;;;;;;3.95;3.53;;;;;;;;;;4863103;29;20036;-12
2021/06/05 02:51:39;;;;;;;3.67;3.33;;;;;;;;;;4861152;29;20030;-13
2021/06/05 02:54:06;;;;;;;6.15;3.20;;;;;;;;;;4862977;29;20492;-12
2021/06/05 02:56:32;;;;;;;4.18;3.78;;;;;;;;;;4861464;29;20421;-13
2021/06/05 02:58:59;;;;;;;6.97;3.90;;;;;;;;;;4862571;29;20097;-12
2021/06/05 03:01:29;;;;;;;3.95;3.55;;;;;;;;;;4861243;29;20078;-13
2021/06/05 03:03:56;;;;;;;6.45;4.72;;;;;;;;;;4862829;29;20041;-12
2021/06/05 03:06:22;;;;;;;4.88;4.38;;;;;;;;;;4861129;29;20062;-13
2021/06/05 03:08:48;;;;;;;6.97;5.10;;;;;;;;;;4861233;29;20026;-12
2021/06/05 03:11:17;;;;;;;4.75;4.30;;;;;;;;;;4861224;29;20029;-13
2021/06/05 03:13:43;;;;;;;9.05;4.80;;;;;;;;;;4861000;29;20021;-12
2021/06/05 03:16:10;;;;;;;7.22;4.95;;;;;;;;;;4861163;29;20041;-12
2021/06/05 03:18:42;;;;;;;6.45;4.95;;;;;;;;;;4862436;29;20038;-12
2021/06/05 03:21:09;;;;;;;5.82;4.65;;;;;;;;;;4860968;29;20054;-13
2021/06/05 03:23:35;;;;;;;8.90;6.07;;;;;;;;;;4862308;29;20069;-13
2021/06/05 03:26:04;;;;;;;4.78;4.35;;;;;;;;;;4861961;29;20059;-12
2021/06/05 03:28:35;;;;;;;4.50;4.05;;;;;;;;;;4860724;29;20042;-12
2021/06/05 03:31:02;;;;;;;7.13;4.97;;;;;;;;;;4860606;29;20033;-13
2021/06/05 03:33:31;;;;;;;8.30;5.70;;;;;;;;;;4860810;29;20041;-13
2021/06/05 03:35:57;;;;;;;5.45;4.65;;;;;;;;;;4860690;29;20033;-12
2021/06/05 03:38:24;;;;;;;5.72;4.72;;;;;;;;;;4860792;29;20487;-12
2021/06/05 03:40:52;;;;;;;6.38;4.90;;;;;;;;;;4860453;29;20076;-13
2021/06/05 03:43:17;;;;;;;5.35;4.25;;;;;;;;;;4860569;29;20018;-13
2021/06/05 03:45:46;;;;;;;7.50;4.72;;;;;;;;;;4860520;29;20441;-12
2021/06/05 03:48:12;;;;;;;5.78;4.50;;;;;;;;;;4861748;29;20053;-12
2021/06/05 03:50:39;;;;;;;8.70;4.60;;;;;;;;;;4860550;29;20057;-13
2021/06/05 03:53:09;;;;;;;5.25;4.35;;;;;;;;;;4860415;29;20077;-12
2021/06/05 03:55:36;;;;;;;6.20;5.00;;;;;;;;;;4861771;29;20120;-13
2021/06/05 03:58:02;;;;;;;6.20;4.82;;;;;;;;;;4860345;29;20116;-12
2021/06/05 04:00:30;;;;;;;5.35;4.78;;;;;;;;;;4861578;29;20175;-13
2021/06/05 04:02:56;;;;;;;6.72;4.82;;;;;;;;;;4861377;29;20116;-13
2021/06/05 04:05:21;;;;;;;7.65;4.97;;;;;;;;;;4861066;29;20108;-12
2021/06/05 04:07:47;;;;;;;5.68;5.05;;;;;;;;;;4860526;29;20081;-12
2021/06/05 04:10:12;;;;;;;13.25;5.45;;;;;;;;;;4861675;29;20037;-13
2021/06/05 04:12:38;;;;;;;5.88;5.10;;;;;;;;;;4861340;29;20376;-12
2021/06/05 04:15:05;;;;;;;9.55;4.57;;;;;;;;;;4861277;29;20029;-12
2021/06/05 04:17:30;;;;;;;7.85;5.32;;;;;;;;;;4861181;29;20536;-13
2021/06/05 04:19:56;;;;;;;11.73;5.47;;;;;;;;;;4861111;29;20041;-12
2021/06/05 04:22:21;;;;;;;7.38;4.80;;;;;;;;;;4861465;29;20021;-12
2021/06/05 04:24:46;;;;;;;8.45;5.88;;;;;;;;;;4860938;29;20489;-12
2021/06/05 04:27:12;;;;;;;6.22;4.97;;;;;;;;;;4859779;29;20033;-13
2021/06/05 04:29:37;;;;;;;6.80;5.07;;;;;;;;;;4861417;29;20396;-13
2021/06/05 04:32:04;;;;;;;6.38;5.28;;;;;;;;;;4860819;29;20029;-12
2021/06/05 04:34:29;;;;;;;5.97;4.80;;;;;;;;;;4861289;29;20133;-12
2021/06/05 04:36:54;;;;;;;8.20;5.18;;;;;;;;;;4861128;29;20458;-12
2021/06/05 04:39:20;;;;;;;9.25;5.50;;;;;;;;;;4861044;29;20042;-13
2021/06/05 04:41:47;;;;;;;6.60;5.60;;;;;;;;;;4859405;29;20029;-13
2021/06/05 04:44:12;;;;;;;5.50;4.85;;;;;;;;;;4860712;29;20038;-13
2021/06/05 04:46:37;;;;;;;6.13;5.00;;;;;;;;;;4861109;29;20022;-13
2021/06/05 04:49:03;;;;;;;6.40;4.82;;;;;;;;;;4861027;29;20037;-13
2021/06/05 04:51:30;;;;;;;6.28;4.82;;;;;;;;;;4860615;29;20385;-13
2021/06/05 04:53:55;;;;;;;5.40;4.90;;;;;;;;;;4860819;29;20037;-13
2021/06/05 04:56:22;;;;;;;6.35;5.72;;;;;;;;;;4860898;29;20479;-16
2021/06/05 04:58:47;;;;;;;8.68;5.97;;;;;;;;;;4860863;29;20037;-13
2021/06/05 05:01:13;;;;;;;6.97;5.38;;;;;;;;;;4860478;29;20489;-13
2021/06/05 05:03:38;;;;;;;7.78;5.55;;;;;;;;;;4860523;29;20041;-13
2021/06/05 05:06:04;;;;;;;8.85;5.70;;;;;;;;;;4859070;29;20033;-12
2021/06/05 05:08:31;;;;;;;6.95;5.30;;;;;;;;;;4860549;29;20030;-12
2021/06/05 05:10:57;;;;;;;8.98;5.47;;;;;;;;;;4860290;29;20040;-13
2021/06/05 05:13:25;;;;;;;7.18;6.32;;;;;;;;;;4860371;29;20026;-13
2021/06/05 05:15:51;;;;;;;6.18;5.47;;;;;;;;;;4860259;29;20113;-13
2021/06/05 05:18:17;;;;;;;9.82;5.72;;;;;;;;;;4860601;29;20106;-12
2021/06/05 05:20:43;;;;;;;8.63;6.32;;;;;;;;;;4860333;29;20509;-13
2021/06/05 05:23:10;;;;;;;6.22;5.25;;;;;;;;;;4860306;29;20063;-13
2021/06/05 05:25:36;;;;;;;6.88;6.18;;;;;;;;;;4860129;29;20057;-13
2021/06/05 05:28:03;;;;;;;6.82;6.13;;;;;;;;;;4860654;29;20030;-13
2021/06/05 05:30:33;;;;;;;12.23;5.22;;;;;;;;;;4860533;29;20047;-13
2021/06/05 05:32:58;;;;;;;8.25;5.63;;;;;;;;;;4860032;29;20041;-13
2021/06/05 05:35:24;;;;;;;7.30;5.70;;;;;;;;;;4860150;29;20081;-13
2021/06/05 05:37:51;;;;;;;10.85;5.38;;;;;;;;;;4859846;29;20040;-13
2021/06/05 05:40:17;;;;;;;6.75;5.47;;;;;;;;;;4860339;29;20037;-13
2021/06/05 05:42:42;;;;;;;6.50;5.78;;;;;;;;;;4859946;29;20057;-13
2021/06/05 05:45:08;;;;;;;5.47;4.93;;;;;;;;;;4860389;29;20075;-13
2021/06/05 05:47:33;;;;;;;6.95;5.65;;;;;;;;;;4860084;29;20038;-13
2021/06/05 05:49:59;;;;;;;9.73;5.68;;;;;;;;;;4860215;29;20053;-13
2021/06/05 05:52:24;;;;;;;5.60;4.95;;;;;;;;;;4860244;29;20561;-13
2021/06/05 05:54:50;;;;;;;9.65;5.85;;;;;;;;;;4859984;29;20054;-13
2021/06/05 05:57:15;;;;;;;7.35;5.90;;;;;;;;;;4860116;29;20104;-13
2021/06/05 05:59:41;;;;;;;10.68;5.25;;;;;;;;;;4859957;29;20408;-13
2021/06/05 06:02:07;;;;;;;6.22;5.22;;;;;;;;;;4859913;29;20034;-13
2021/06/05 06:04:32;;;;;;;5.40;4.90;;;;;;;;;;4859743;29;20061;-13
2021/06/05 06:06:58;;;;;;;11.32;6.03;;;;;;;;;;4859827;29;20064;-13
2021/06/05 06:09:23;;;;;;;7.20;6.13;;;;;;;;;;4859914;29;20104;-13
2021/06/05 06:11:49;;;;;;;11.13;5.75;;;;;;;;;;4859771;29;20045;-13
2021/06/05 06:14:15;;;;;;;6.90;5.80;;;;;;;;;;4858584;29;20037;-13
2021/06/05 06:16:40;;;;;;;8.15;6.40;;;;;;;;;;4858549;29;20050;-13
2021/06/05 06:19:06;;;;;;;7.18;6.38;;;;;;;;;;4859898;29;20025;-13
2021/06/05 06:21:32;;;;;;;10.77;5.80;;;;;;;;;;4859783;29;20041;-13
2021/06/05 06:23:57;;;;;;;6.90;6.00;;;;;;;;;;4859763;29;20014;-13
2021/06/05 06:26:24;;;;;;;8.55;6.18;;;;;;;;;;4860024;29;20511;-13
2021/06/05 06:28:50;;;;;;;7.18;6.47;;;;;;;;;;4861727;29;20530;-13
2021/06/05 06:31:17;;;;;;;16.58;6.53;;;;;;;;;;4863261;29;20037;-13
2021/06/05 06:33:42;;;;;;;8.50;7.05;;;;;;;;;;4862106;29;20498;-13
2021/06/05 06:36:08;;;;;;;7.65;6.07;;;;;;;;;;4863107;29;20128;-12
2021/06/05 06:38:36;;;;;;;8.93;6.35;;;;;;;;;;4863034;29;20017;-13
2021/06/05 06:41:03;;;;;;;10.50;6.97;;;;;;;;;;4862922;29;20535;-13
2021/06/05 06:43:29;;;;;;;10.10;7.18;;;;;;;;;;4862864;29;20108;-13
2021/06/05 06:46:07;;;;;;;9.55;7.35;;;;;;;;;;4863041;29;20061;-15
2021/06/05 06:48:33;;;;;;;8.05;7.20;;;;;;;;;;4862875;29;20038;-13
2021/06/05 06:50:59;;;;;;;10.35;6.93;;;;;;;;;;4863013;29;20128;-13
2021/06/05 06:53:24;;;;;;;8.65;7.00;;;;;;;;;;4862601;29;20037;-13
2021/06/05 06:55:50;;;;;;;11.73;6.60;;;;;;;;;;4862671;29;20028;-13
2021/06/05 06:58:15;;;;;;;11.10;8.02;;;;;;;;;;4862978;29;20396;-13
2021/06/05 07:00:43;;;;;;;9.68;7.18;;;;;;;;;;4862437;29;20041;-13
2021/06/05 07:03:09;;;;;;;13.38;6.82;;;;;;;;;;4862669;29;20034;-13
2021/06/05 07:05:35;;;;;;;10.82;7.03;;;;;;;;;;4862588;29;20031;-13
2021/06/05 07:08:22;;;;;;;15.45;9.38;;;;;;;;;;4862650;29;20037;-12
2021/06/05 07:10:48;;;;;;;13.07;6.93;;;;;;;;;;4862415;29;20093;-13
2021/06/05 07:13:14;;;;;;;14.20;7.75;;;;;;;;;;4862759;29;20048;-13
2021/06/05 07:15:40;;;;;;;8.88;6.68;;;;;;;;;;4862571;29;20473;-13
2021/06/05 07:18:06;;;;;;;11.98;6.80;;;;;;;;;;4862568;29;20105;-13
2021/06/05 07:20:32;;;;;;;9.70;7.43;;;;;;;;;;4862177;29;20041;-13
2021/06/05 07:22:57;;;;;;;9.13;7.10;;;;;;;;;;4862170;29;20022;-13
2021/06/05 07:25:23;;;;;;;9.02;7.05;;;;;;;;;;4862178;29;20492;-13
2021/06/05 07:27:48;;;;;;;6.75;6.05;;;;;;;;;;4862112;29;20400;-13
2021/06/05 07:30:14;;;;;;;11.43;6.95;;;;;;;;;;4862398;29;20034;-13
2021/06/05 07:32:39;;;;;;;10.35;6.70;;;;;;;;;;4862344;29;20521;-13
2021/06/05 07:35:05;;;;;;;8.60;6.93;;;;;;;;;;4860753;29;20459;-13
2021/06/05 07:37:30;;;;;;;8.07;6.22;;;;;;;;;;4862308;29;20017;-13
2021/06/05 07:39:56;;;;;;;6.50;5.82;;;;;;;;;;4860903;29;20060;-13
2021/06/05 07:42:22;;;;;;;9.57;6.70;;;;;;;;;;4862096;29;20029;-13
2021/06/05 07:44:48;;;;;;;7.10;5.78;;;;;;;;;;4862102;29;20038;-13
2021/06/05 07:47:13;;;;;;;7.25;5.93;;;;;;;;;;4862056;29;20025;-13
2021/06/05 07:49:39;;;;;;;5.07;4.57;;;;;;;;;;4862000;29;20041;-13
2021/06/05 07:52:06;;;;;;;7.78;6.28;;;;;;;;;;4861739;29;20025;-13
2021/06/05 07:54:32;;;;;;;5.72;4.90;;;;;;;;;;4861740;29;20488;-13
2021/06/05 07:56:57;;;;;;;8.48;6.10;;;;;;;;;;4861884;29;20100;-13
2021/06/05 07:59:24;;;;;;;12.77;6.75;;;;;;;;;;4861582;29;20040;-13
2021/06/05 08:01:50;;;;;;;9.20;5.47;;;;;;;;;;4861513;29;20082;-13
2021/06/05 08:04:17;;;;;;;6.13;4.97;;;;;;;;;;4861801;29;20029;-13
2021/06/05 08:06:43;;;;;;;6.32;4.68;;;;;;;;;;4861513;29;20080;-13
2021/06/05 08:09:08;;;;;;;7.00;5.28;;;;;;;;;;4861606;29;20048;-13
2021/06/05 08:11:34;;;;;;;6.80;5.32;;;;;;;;;;4861328;29;20468;-13
2021/06/05 08:13:59;;;;;;;8.25;5.45;;;;;;;;;;4861320;29;20029;-13
2021/06/05 08:16:25;;;;;;;7.90;4.82;;;;;;;;;;4861399;29;20501;-13
2021/06/05 08:18:51;;;;;;;5.88;4.68;;;;;;;;;;4861135;29;20065;-13
2021/06/05 08:21:17;;;;;;;6.18;4.45;;;;;;;;;;4861478;29;20068;-13
2021/06/05 08:23:43;;;;;;;6.25;4.00;;;;;;;;;;4860269;29;20030;-13
2021/06/05 08:26:10;;;;;;;7.68;5.35;;;;;;;;;;4860954;29;20097;-13
2021/06/05 08:28:36;;;;;;;7.18;4.35;;;;;;;;;;4861397;29;20376;-13
2021/06/05 08:31:07;;;;;;;5.10;4.30;;;;;;;;;;4861162;29;20030;-12
2021/06/05 08:33:33;;;;;;;4.88;4.45;;;;;;;;;;4860947;29;20072;-13
2021/06/05 08:35:58;;;;;;;4.22;3.75;;;;;;;;;;4859751;29;20072;-13
2021/06/05 08:38:25;;;;;;;5.43;4.18;;;;;;;;;;4860984;29;20037;-13
2021/06/05 08:40:51;;;;;;;4.10;3.65;;;;;;;;;;4860966;29;20040;-13
2021/06/05 08:43:20;;;;;;;3.65;3.28;;;;;;;;;;4860815;29;20037;-13
2021/06/05 08:45:46;;;;;;;6.60;3.60;;;;;;;;;;4861069;29;20038;-13
2021/06/05 08:48:15;;;;;;;4.28;3.85;;;;;;;;;;4860754;29;20052;-13
2021/06/05 08:50:41;;;;;;;7.18;3.58;;;;;;;;;;4860547;29;20037;-14
2021/06/05 08:53:12;;;;;;;5.30;3.00;;;;;;;;;;4860891;29;20029;-13
2021/06/05 08:55:39;;;;;;;4.55;3.72;;;;;;;;;;4860883;29;20033;-13
2021/06/05 08:58:04;;;;;;;4.75;3.97;;;;;;;;;;4860875;29;20041;-13
2021/06/05 09:00:29;;;;;;;4.38;3.97;;;;;;;;;;4860482;29;20576;-13
2021/06/05 09:03:00;;;;;;;6.35;3.47;;;;;;;;;;4860538;29;20421;-13
2021/06/05 09:05:29;;;;;;;4.70;4.25;;;;;;;;;;4860771;29;20385;-13
2021/06/05 09:07:54;;;;;;;10.05;4.72;;;;;;;;;;4860662;29;20034;-13
2021/06/05 09:10:20;;;;;;;5.07;4.35;;;;;;;;;;4860461;29;20088;-13
2021/06/05 09:12:46;;;;;;;6.72;4.05;;;;;;;;;;4860389;29;20025;-12
2021/06/05 09:15:30;;;;;;;7.30;3.08;;;;;;;;;;4860393;29;20037;-13
2021/06/05 09:17:59;;;;;;;3.97;3.30;;;;;;;;;;4860258;29;20039;-13
2021/06/05 09:20:38;;;;;;;8.00;3.63;;;;;;;;;;4858945;29;20041;-13
2021/06/05 09:23:24;;;;;;;5.07;4.45;;;;;;;;;;4860206;29;20442;-13
2021/06/05 09:25:50;;;;;;;4.55;3.90;;;;;;;;;;4860126;29;20045;-13
2021/06/05 09:28:29;;;;;;;5.65;4.22;;;;;;;;;;4859070;29;20033;-13
2021/06/05 09:31:14;;;;;;;5.50;4.38;;;;;;;;;;4860311;29;20429;-13
2021/06/05 09:33:40;;;;;;;7.38;4.93;;;;;;;;;;4860490;29;20040;-13
2021/06/05 09:36:17;;;;;;;7.53;4.90;;;;;;;;;;4860371;29;20025;-13
2021/06/05 09:38:54;;;;;;;9.70;4.80;;;;;;;;;;4859059;29;20037;-13
2021/06/05 09:41:19;;;;;;;6.45;4.78;;;;;;;;;;4860133;29;20128;-13
2021/06/05 09:43:47;;;;;;;6.95;5.20;;;;;;;;;;4860262;29;20102;-13
2021/06/05 09:46:31;;;;;;;11.32;4.63;;;;;;;;;;4860047;29;20041;-13
2021/06/05 09:49:10;;;;;;;5.20;4.07;;;;;;;;;;4858784;29;20489;-13
2021/06/05 09:51:38;;;;;;;5.93;4.50;;;;;;;;;;4860010;29;20401;-13
2021/06/05 09:54:14;;;;;;;6.07;4.60;;;;;;;;;;4859971;29;20052;-12
2021/06/05 09:56:41;;;;;;;5.00;3.53;;;;;;;;;;4860049;29;20473;-13
2021/06/05 09:59:06;;;;;;;6.15;5.28;;;;;;;;;;4859811;29;20112;-13
2021/06/05 10:01:33;;;;;;;4.30;3.17;;;;;;;;;;4859193;29;20120;-13
2021/06/05 10:04:07;;;;;;;6.80;4.70;;;;;;;;;;4863538;29;20025;-13
2021/06/05 10:06:42;;;;;;;4.80;4.30;;;;;;;;;;4863841;29;20037;-13
2021/06/05 10:09:30;;;;;;;6.53;3.97;;;;;;;;;;4863572;29;20022;-13
2021/06/05 10:12:00;;;;;;;9.35;5.22;;;;;;;;;;4863350;29;20034;-13
2021/06/05 10:14:38;;;;;;;5.63;5.03;;;;;;;;;;4863464;29;20078;-13
2021/06/05 10:17:23;;;;;;;7.28;4.43;;;;;;;;;;4863388;29;20621;-13
2021/06/05 10:19:51;;;;;;;8.18;5.05;;;;;;;;;;4862801;29;20046;-13
2021/06/05 10:22:17;;;;;;;5.15;4.15;;;;;;;;;;4863420;29;20429;-13
2021/06/05 10:25:00;;;;;;;7.72;4.68;;;;;;;;;;4863070;29;20483;-13
2021/06/05 10:27:28;;;;;;;5.03;3.72;;;;;;;;;;4863577;29;20065;-13
2021/06/05 10:29:56;;;;;;;5.93;4.03;;;;;;;;;;4863194;29;20034;-13
2021/06/05 10:32:24;;;;;;;7.45;3.80;;;;;;;;;;4863167;29;20033;-13
2021/06/05 10:34:57;;;;;;;4.15;3.72;;;;;;;;;;4863018;29;20053;-13
2021/06/05 10:37:24;;;;;;;3.97;3.55;;;;;;;;;;4863171;29;20139;-13
2021/06/05 10:39:50;;;;;;;5.00;4.38;;;;;;;;;;4862928;29;20039;-13
2021/06/05 10:42:15;;;;;;;6.65;4.97;;;;;;;;;;4863168;29;20037;-13
2021/06/05 10:44:41;;;;;;;6.85;4.68;;;;;;;;;;4863168;29;20081;-13
2021/06/05 10:47:17;;;;;;;3.33;2.97;;;;;;;;;;4862828;29;20037;-13
2021/06/05 10:49:47;;;;;;;9.30;4.13;;;;;;;;;;4862865;29;20044;-13
2021/06/05 10:52:25;;;;;;;4.47;3.83;;;;;;;;;;4862822;29;20033;-13
2021/06/05 10:54:52;;;;;;;4.18;3.78;;;;;;;;;;4862920;29;20041;-13
2021/06/05 10:57:21;;;;;;;4.88;4.25;;;;;;;;;;4862979;29;20033;-13
2021/06/05 10:59:57;;;;;;;4.40;3.38;;;;;;;;;;4862630;29;20041;-13
2021/06/05 11:02:41;;;;;;;5.57;3.33;;;;;;;;;;4862637;29;20032;-13
2021/06/05 11:05:16;;;;;;;3.60;3.30;;;;;;;;;;4862662;29;20105;-13
2021/06/05 11:07:41;;;;;;;5.68;3.58;;;;;;;;;;4862797;29;20084;-13
2021/06/05 11:10:07;;;;;;;4.65;3.80;;;;;;;;;;4862414;29;20500;-13
2021/06/05 11:12:33;;;;;;;8.85;3.25;;;;;;;;;;4862568;29;20040;-12
2021/06/05 11:14:59;;;;;;;9.35;4.05;;;;;;;;;;4860695;29;20025;-12
2021/06/05 11:17:30;;;;;;;10.15;4.22;;;;;;;;;;4842419;29;20029;-12
2021/06/05 11:20:02;;;;;;;5.18;3.25;;;;;;;;;;4843706;29;20037;-12
2021/06/05 11:22:47;;;;;;;4.15;3.13;;;;;;;;;;4844155;29;20030;-12
2021/06/05 11:25:14;;;;;;;4.78;2.80;;;;;;;;;;4843559;29;20082;-12
2021/06/05 11:27:39;;;;;;;19.52;3.78;;;;;;;;;;4842419;29;20038;-12
2021/06/05 11:30:07;;;;;;;2.70;2.25;;;;;;;;;;4841620;29;20054;-12
2021/06/05 11:32:36;;;;;;;4.43;3.03;;;;;;;;;;4843678;29;20378;-12
2021/06/05 11:35:06;;;;;;;12.15;3.40;;;;;;;;;;4843617;29;20034;-12
2021/06/05 11:37:32;;;;;;;6.22;3.10;;;;;;;;;;4842274;29;20034;-12
2021/06/05 11:39:58;;;;;;;3.17;2.67;;;;;;;;;;4843441;29;20393;-12
2021/06/05 11:42:24;;;;;;;3.55;3.00;;;;;;;;;;4841722;29;20054;-11
2021/06/05 11:49:43;;;;;;;5.88;4.63;;;;;;;;;;5109079;27;20874;-9
2021/06/05 11:52:26;;;;;;;6.20;3.28;;;;;;;;;;5110507;28;20039;-8
2021/06/05 11:55:08;;;;;;;3.33;3.03;;;;;;;;;;5109472;28;20039;-6
2021/06/05 11:57:33;;;;;;;3.97;2.85;;;;;;;;;;5110250;28;20023;-8
2021/06/05 12:00:08;;;;;;;5.57;3.90;;;;;;;;;;5110423;28;20020;-7
2021/06/05 12:02:42;;;;;;;4.03;3.63;;;;;;;;;;5110121;28;20383;-7
2021/06/05 12:05:08;;;;;;;3.95;3.30;;;;;;;;;;5110243;28;20111;-7
2021/06/05 12:07:34;;;;;;;5.38;3.47;;;;;;;;;;5110010;28;20574;-7
2021/06/05 12:10:00;;;;;;;4.20;3.50;;;;;;;;;;5109825;28;20103;-7
2021/06/05 12:15:19;;;;;;;5.00;3.67;;;;;;;;;;5558333;23;20067;-39
2021/06/05 12:17:53;;;;;;;5.97;4.28;;;;;;;;;;5469016;23;20410;-44
2021/06/05 12:20:18;;;;;;;6.57;2.60;;;;;;;;;;4950694;28;20074;-44
2021/06/05 12:22:45;;;;;;;6.65;5.57;;;;;;;;;;4951200;28;20019;-39
2021/06/05 12:28:12;;;;;;;2.78;1.88;;;;;;;;;;5248121;23;20103;-40
2021/06/05 12:30:41;;;;;;;4.90;4.30;;;;;;;;;;4935267;29;20038;-39
2021/06/05 12:33:08;;;;;;;9.98;5.05;;;;;;;;;;4940715;28;20457;-40
2021/06/05 12:38:49;;;;;;;3.40;3.10;;;;;;;;;;4890600;29;20045;-39
2021/06/05 12:41:26;;;;;;;8.10;3.75;;;;;;;;;;4888552;29;20041;-39
2021/06/05 12:43:51;;;;;;;9.63;4.57;;;;;;;;;;4883826;29;20080;-39
2021/06/05 12:46:19;;;;;;;4.15;3.80;;;;;;;;;;4893768;29;20064;-39
2021/06/05 12:48:44;;;;;;;5.40;3.30;;;;;;;;;;4894268;29;20041;-39
2021/06/05 12:51:14;;;;;;;13.30;3.50;;;;;;;;;;4894155;29;20025;-39
2021/06/05 12:53:40;;;;;;;6.40;4.20;;;;;;;;;;4894210;29;20051;-39
2021/06/05 12:56:25;;;;;;;6.72;3.33;;;;;;;;;;4894060;29;20455;-39
2021/06/05 12:58:54;;;;;;;4.82;3.72;;;;;;;;;;4891474;29;20044;-39
2021/06/05 13:01:27;;;;;;;3.97;3.40;;;;;;;;;;4881486;29;20021;-39
2021/06/05 13:03:53;;;;;;;4.40;3.45;;;;;;;;;;4895845;29;20040;-40
2021/06/05 13:06:20;;;;;;;6.40;3.65;;;;;;;;;;4880071;29;20021;-40
2021/06/05 13:08:47;;;;;;;5.57;3.92;;;;;;;;;;4880845;29;20089;-40
2021/06/05 13:11:32;;;;;;;4.25;3.78;;;;;;;;;;4881585;29;20017;-39
2021/06/05 13:14:08;;;;;;;6.15;3.83;;;;;;;;;;4881232;29;20028;-40
2021/06/05 13:16:34;;;;;;;5.50;3.83;;;;;;;;;;4895454;29;20093;-39
2021/06/05 13:19:29;;;;;;;4.75;3.20;;;;;;;;;;4881101;29;20024;-39
2021/06/05 13:22:27;;;;;;;4.45;3.95;;;;;;;;;;4880550;29;20057;-39
2021/06/05 13:24:58;;;;;;;5.45;3.95;;;;;;;;;;4879693;29;20048;-39
2021/06/05 13:27:24;;;;;;;5.80;3.53;;;;;;;;;;4880844;29;20060;-39
2021/06/05 13:29:49;;;;;;;9.57;3.95;;;;;;;;;;4881001;29;20445;-40
2021/06/05 13:32:24;;;;;;;8.30;4.15;;;;;;;;;;4880877;29;20096;-39
2021/06/05 13:34:49;;;;;;;7.68;3.90;;;;;;;;;;4880723;29;20548;-40
2021/06/05 13:37:17;;;;;;;3.95;3.00;;;;;;;;;;4880659;29;20091;-39
2021/06/05 13:39:43;;;;;;;4.40;3.28;;;;;;;;;;4879546;29;20551;-40
2021/06/05 13:42:09;;;;;;;4.75;4.25;;;;;;;;;;4880668;29;20124;-40
2021/06/05 13:44:34;;;;;;;5.32;3.42;;;;;;;;;;4880715;29;20062;-40
2021/06/05 13:46:59;;;;;;;4.28;3.88;;;;;;;;;;4881616;29;20024;-40
2021/06/05 13:49:25;;;;;;;9.18;3.78;;;;;;;;;;4881849;29;20047;-40
2021/06/05 13:51:50;;;;;;;5.47;3.65;;;;;;;;;;4881943;29;20069;-40
2021/06/05 13:54:16;;;;;;;3.70;3.10;;;;;;;;;;4881841;29;20031;-41
2021/06/05 13:56:42;;;;;;;3.72;3.15;;;;;;;;;;4880090;29;20025;-39
2021/06/05 13:59:08;;;;;;;5.10;3.90;;;;;;;;;;4880514;29;20036;-39
2021/06/05 14:01:34;;;;;;;4.63;3.40;;;;;;;;;;4880348;29;20021;-39
2021/06/05 14:04:00;;;;;;;3.92;3.40;;;;;;;;;;4879176;29;20052;-39
2021/06/05 14:06:26;;;;;;;4.82;2.83;;;;;;;;;;4880349;29;20464;-40
2021/06/05 14:08:52;;;;;;;7.75;2.40;;;;;;;;;;4880333;29;20048;-40
2021/06/05 14:11:18;;;;;;;4.00;3.60;;;;;;;;;;4878133;29;20021;-39
2021/06/05 14:13:45;;;;;;;4.72;3.72;;;;;;;;;;4880147;29;20029;-40
2021/06/05 14:16:14;;;;;;;5.07;3.60;;;;;;;;;;4878929;29;20112;-39
2021/06/05 14:18:39;;;;;;;7.07;2.88;;;;;;;;;;4880006;29;20496;-40
2021/06/05 14:21:05;;;;;;;5.88;2.05;;;;;;;;;;4880122;29;20025;-40
2021/06/05 14:23:30;;;;;;;3.58;3.28;;;;;;;;;;4879926;29;20041;-40
2021/06/05 14:25:57;;;;;;;4.82;2.75;;;;;;;;;;4879995;29;20028;-39
2021/06/05 14:28:25;;;;;;;3.15;2.85;;;;;;;;;;4880188;29;20049;-40
2021/06/05 14:30:52;;;;;;;2.38;2.17;;;;;;;;;;4880057;29;20029;-40
2021/06/05 14:33:18;;;;;;;5.40;2.85;;;;;;;;;;4879929;29;20084;-43
2021/06/05 14:35:44;;;;;;;5.15;2.47;;;;;;;;;;4880123;29;20424;-39
2021/06/05 14:38:11;;;;;;;3.10;2.80;;;;;;;;;;4879548;29;20041;-40
2021/06/05 14:40:37;;;;;;;4.28;3.50;;;;;;;;;;4879998;29;20444;-39
2021/06/05 14:43:03;;;;;;;4.10;2.53;;;;;;;;;;4879662;29;20076;-40
2021/06/05 14:45:30;;;;;;;5.00;4.32;;;;;;;;;;4879666;29;20130;-39
2021/06/05 14:47:56;;;;;;;19.83;3.78;;;;;;;;;;4879857;29;20451;-40
2021/06/05 14:50:22;;;;;;;8.38;3.22;;;;;;;;;;4879598;29;20103;-40
2021/06/05 14:52:47;;;;;;;3.28;2.97;;;;;;;;;;4878544;29;20039;-39
2021/06/05 14:55:13;;;;;;;3.35;2.58;;;;;;;;;;4879788;29;20180;-39
2021/06/05 14:57:39;;;;;;;4.53;3.25;;;;;;;;;;4879320;29;20021;-40
2021/06/05 15:00:07;;;;;;;4.35;2.60;;;;;;;;;;4879680;29;20036;-39
2021/06/05 15:02:33;;;;;;;5.32;2.80;;;;;;;;;;4879342;29;20108;-40
2021/06/05 15:04:58;;;;;;;3.90;3.10;;;;;;;;;;4879363;29;20519;-40